EW6235 Weather Reports


Display with metric or nautical units.
time (UTC)temp
F
wind
direction
speed
MPH
gust
MPH
rain 1hr
in
rain 24hr
in
rain mn
in
humidity
%
barometer
mb
20210926064530 66 211 0.0 0.0 0.00 0.00 0.00 67 1017.5
20210926063102 66 211 0.0 0.0 0.00 0.00 0.00 66 1017.5
20210926061531 67 211 0.0 0.0 0.00 0.00 0.00 63 1017.5
20210926060038 68 211 0.0 0.0 0.00 0.00 0.00 61 1017.6
20210926054522 69 166 0.0 0.0 0.00 0.00 0.00 60 1017.4
20210926053017 70 196 0.0 0.0 0.00 0.00 0.00 57 1017.6
20210926051537 70 215 0.0 0.0 0.00 0.00 0.00 56 1017.6
20210926050019 71 253 0.0 4.0 0.00 0.00 0.00 53 1017.6
20210926044541 72 147 0.0 5.0 0.00 0.00 0.00 52 1017.5
20210926043023 73 127 0.0 0.0 0.00 0.00 0.00 48 1017.4
20210926041509 73 212 0.0 6.0 0.00 0.00 0.00 47 1017.2
20210926040009 74 88 0.0 6.0 0.00 0.00 0.00 46 1017.1
20210926034526 73 157 0.0 5.0 0.00 0.00 0.00 46 1016.9
20210926033007 72 30 0.0 0.0 0.00 0.00 0.00 48 1017.0
20210926031506 72 46 0.0 0.0 0.00 0.00 0.00 50 1016.9
20210926030009 73 49 0.0 0.0 0.00 0.00 0.00 48 1016.9
20210926024505 74 49 0.0 0.0 0.00 0.00 0.00 48 1016.8
20210926023013 75 48 0.0 0.0 0.00 0.00 0.00 46 1016.7
20210926021512 76 93 0.0 1.0 0.00 0.00 0.00 44 1016.6
20210926020004 76 46 0.0 0.0 0.00 0.00 0.00 44 1016.4
20210926014503 76 45 0.0 0.0 0.00 0.00 0.00 44 1016.3
20210926013004 77 50 0.0 0.0 0.00 0.00 0.00 41 1016.2
20210926011513 79 51 0.0 0.0 0.00 0.00 0.00 39 1016.1
20210926010006 80 63 0.0 0.0 0.00 0.00 0.00 38 1016.1
20210926004501 81 76 0.0 0.0 0.00 0.00 0.00 35 1015.9
20210926001701 84 32 0.0 0.0 0.00 0.00 0.00 31 1015.9
20210926000154 85 47 0.0 1.0 0.00 0.00 0.00 30 1016.0
20210925234754 87 59 0.0 1.0 0.00 0.00 0.00 27 1016.0
20210925233155 89 53 0.0 1.0 0.00 0.00 0.00 26 1016.0
20210925231647 89 141 0.0 1.0 0.00 0.00 0.00 27 1015.9
20210925230120 89 138 0.0 6.0 0.00 0.00 0.00 26 1015.8
20210925224559 90 113 0.0 5.0 0.00 0.00 0.00 25 1015.9
20210925223106 90 98 1.0 7.0 0.00 0.00 0.00 25 1015.9
20210925221632 89 44 0.0 4.0 0.00 0.00 0.00 27 1015.8
20210925220129 89 88 0.0 1.0 0.00 0.00 0.00 27 1016.0
20210925214656 89 81 0.0 6.0 0.00 0.00 0.00 27 1016.1
20210925213121 89 59 0.0 1.0 0.00 0.00 0.00 26 1016.0
20210925211629 89 103 0.0 5.0 0.00 0.00 0.00 26 1016.3
20210925210146 90 33 0.0 6.0 0.00 0.00 0.00 28 1016.3
20210925204709 89 86 0.0 4.0 0.00 0.00 0.00 29 1016.5
20210925203058 89 76 0.0 2.0 0.00 0.00 0.00 29 1016.8
20210925201611 89 96 0.0 6.0 0.00 0.00 0.00 29 1017.1
20210925200056 88 31 0.0 6.0 0.00 0.00 0.00 31 1017.3
20210925194541 90 36 0.0 4.0 0.00 0.00 0.00 29 1017.5
20210925193043 88 37 0.0 2.0 0.00 0.00 0.00 30 1017.8
20210925191551 88 117 0.0 2.0 0.00 0.00 0.00 32 1018.0
20210925190048 88 43 0.0 1.0 0.00 0.00 0.00 33 1018.2
20210925184535 87 210 0.0 1.0 0.00 0.00 0.00 33 1018.7
20210925183115 86 55 0.0 2.0 0.00 0.00 0.00 35 1019.0
20210925181544 86 56 0.0 6.0 0.00 0.00 0.00 36 1019.2
20210925180050 85 95 0.0 6.0 0.00 0.00 0.00 38 1019.2
20210925174556 86 228 1.0 6.0 0.00 0.00 0.00 39 1019.3
20210925173054 85 194 0.0 0.0 0.00 0.00 0.00 40 1019.5
20210925171542 84 206 0.0 7.0 0.00 0.00 0.00 41 1019.7
20210925170034 83 83 0.0 0.0 0.00 0.00 0.00 43 1019.9
20210925164519 83 71 0.0 4.0 0.00 0.00 0.00 44 1019.9
20210925163016 83 26 0.0 0.0 0.00 0.00 0.00 46 1020.0
20210925161530 82 93 0.0 2.0 0.00 0.00 0.00 49 1020.0
20210925160016 80 207 0.0 1.0 0.00 0.00 0.00 52 1020.1
20210925154507 79 109 0.0 4.0 0.00 0.00 0.00 55 1020.2
20210925153021 78 165 0.0 0.0 0.00 0.00 0.00 56 1020.3
20210925150136 75 54 0.0 0.0 0.00 0.00 0.00 63 1020.0
20210925144742 74 72 0.0 0.0 0.00 0.00 0.00 65 1019.9
20210925143121 72 98 0.0 0.0 0.00 0.00 0.00 69 1019.7
20210925141618 69 36 0.0 0.0 0.00 0.00 0.00 73 1019.5
20210925140109 68 65 0.0 0.0 0.00 0.00 0.00 75 1019.3
20210925134635 67 67 0.0 0.0 0.00 0.00 0.00 77 1019.2
20210925133206 67 109 0.0 0.0 0.00 0.00 0.00 78 1019.1
20210925131626 0 0.0 0.0 0.00 0.00 0.00 1018.8
20210925130054 0 0.0 0.0 0.00 0.00 0.00 1018.8
20210925124552 0 0.0 0.0 0.00 0.00 0.00 1018.6
20210925123036 0 0.0 0.0 0.00 0.00 0.00 1018.5
20210925121543 0 0.0 0.0 0.00 0.00 0.00 1018.4
20210925120050 0 0.0 0.0 0.00 0.00 0.00 1018.3
20210925114525 0 0.0 0.0 0.00 0.00 0.00 1018.2
20210925113033 0 0.0 0.0 0.00 0.00 0.00 1018.1
20210925111513 0 0.0 0.0 0.00 0.00 0.00 1017.9
20210925110116 0 0.0 0.0 0.00 0.00 0.00 1017.7
20210925104629 0 0.0 0.0 0.00 0.00 0.00 1017.6
20210925103053 0 0.0 0.0 0.00 0.00 0.00 1017.5
20210925101605 0 0.0 0.0 0.00 0.00 0.00 1017.4
20210925100110 0 0.0 0.0 0.00 0.00 0.00 1017.4
20210925094655 65 92 0.0 0.0 0.00 0.00 0.00 78 1017.3
20210925093123 65 96 0.0 0.0 0.00 0.00 0.00 79 1017.3
20210925091554 65 96 0.0 0.0 0.00 0.00 0.00 78 1017.3
20210925090046 65 96 0.0 0.0 0.00 0.00 0.00 78 1017.2
20210925084541 65 96 0.0 0.0 0.00 0.00 0.00 78 1017.3
20210925083052 65 96 0.0 0.0 0.00 0.00 0.00 78 1017.3
20210925081544 65 96 0.0 0.0 0.00 0.00 0.00 79 1017.3
20210925080137 65 96 0.0 0.0 0.00 0.00 0.00 79 1017.4
20210925074611 65 96 0.0 0.0 0.00 0.00 0.00 78 1017.4
20210925073102 66 96 0.0 0.0 0.00 0.00 0.00 77 1017.2
20210925071531 66 96 0.0 0.0 0.00 0.00 0.00 75 1017.2
20210925070103 67 96 0.0 0.0 0.00 0.00 0.00 74 1017.1